sensor_id;sensor_type;location;lat;lon;timestamp;P1;durP1;ratioP1;P2;durP2;ratioP2
69310;SDS011;56430;48.154;16.458;2022-08-01T00:01:57;4.80;;;2.70;;
69310;SDS011;56430;48.154;16.458;2022-08-01T00:04:24;3.40;;;2.53;;
69310;SDS011;56430;48.154;16.458;2022-08-01T00:06:52;4.68;;;2.42;;
69310;SDS011;56430;48.154;16.458;2022-08-01T00:09:19;4.57;;;2.92;;
69310;SDS011;56430;48.154;16.458;2022-08-01T00:11:46;4.15;;;2.80;;
69310;SDS011;56430;48.154;16.458;2022-08-01T00:14:13;4.05;;;2.50;;
69310;SDS011;56430;48.154;16.458;2022-08-01T00:16:40;4.47;;;2.63;;
69310;SDS011;56430;48.154;16.458;2022-08-01T00:19:06;3.50;;;2.40;;
69310;SDS011;56430;48.154;16.458;2022-08-01T00:21:33;4.93;;;2.70;;
69310;SDS011;56430;48.154;16.458;2022-08-01T00:24:01;5.10;;;2.50;;
69310;SDS011;56430;48.154;16.458;2022-08-01T00:26:28;3.83;;;2.40;;
69310;SDS011;56430;48.154;16.458;2022-08-01T00:28:55;4.22;;;2.30;;
69310;SDS011;56430;48.154;16.458;2022-08-01T00:31:22;3.90;;;2.60;;
69310;SDS011;56430;48.154;16.458;2022-08-01T00:33:49;4.55;;;2.60;;
69310;SDS011;56430;48.154;16.458;2022-08-01T00:36:15;5.70;;;2.60;;
69310;SDS011;56430;48.154;16.458;2022-08-01T00:38:42;4.18;;;2.53;;
69310;SDS011;56430;48.154;16.458;2022-08-01T00:41:10;4.68;;;2.88;;
69310;SDS011;56430;48.154;16.458;2022-08-01T00:43:37;4.15;;;2.70;;
69310;SDS011;56430;48.154;16.458;2022-08-01T00:46:04;4.88;;;3.08;;
69310;SDS011;56430;48.154;16.458;2022-08-01T00:48:31;3.40;;;2.55;;
69310;SDS011;56430;48.154;16.458;2022-08-01T00:50:58;4.45;;;2.75;;
69310;SDS011;56430;48.154;16.458;2022-08-01T00:53:24;5.67;;;2.80;;
69310;SDS011;56430;48.154;16.458;2022-08-01T00:55:52;4.03;;;2.75;;
69310;SDS011;56430;48.154;16.458;2022-08-01T00:58:21;3.80;;;2.50;;
69310;SDS011;56430;48.154;16.458;2022-08-01T01:00:48;4.10;;;2.70;;
69310;SDS011;56430;48.154;16.458;2022-08-01T01:03:15;4.78;;;2.90;;
69310;SDS011;56430;48.154;16.458;2022-08-01T01:05:45;4.60;;;2.78;;
69310;SDS011;56430;48.154;16.458;2022-08-01T01:08:16;4.10;;;2.67;;
69310;SDS011;56430;48.154;16.458;2022-08-01T01:10:46;4.45;;;2.65;;
69310;SDS011;56430;48.154;16.458;2022-08-01T01:13:16;5.20;;;3.17;;
69310;SDS011;56430;48.154;16.458;2022-08-01T01:15:47;4.90;;;3.30;;
69310;SDS011;56430;48.154;16.458;2022-08-01T01:18:17;4.22;;;2.55;;
69310;SDS011;56430;48.154;16.458;2022-08-01T01:20:45;4.53;;;3.17;;
69310;SDS011;56430;48.154;16.458;2022-08-01T01:23:17;4.33;;;2.90;;
69310;SDS011;56430;48.154;16.458;2022-08-01T01:25:51;5.13;;;2.78;;
69310;SDS011;56430;48.154;16.458;2022-08-01T01:28:24;4.13;;;2.50;;
69310;SDS011;56430;48.154;16.458;2022-08-01T01:30:55;5.75;;;2.72;;
69310;SDS011;56430;48.154;16.458;2022-08-01T01:33:23;4.35;;;3.17;;
69310;SDS011;56430;48.154;16.458;2022-08-01T01:35:55;4.75;;;2.85;;
69310;SDS011;56430;48.154;16.458;2022-08-01T01:38:26;4.40;;;2.90;;
69310;SDS011;56430;48.154;16.458;2022-08-01T01:40:53;5.27;;;3.07;;
69310;SDS011;56430;48.154;16.458;2022-08-01T01:43:21;8.95;;;3.03;;
69310;SDS011;56430;48.154;16.458;2022-08-01T01:45:49;6.65;;;3.10;;
69310;SDS011;56430;48.154;16.458;2022-08-01T01:48:19;4.25;;;2.90;;
69310;SDS011;56430;48.154;16.458;2022-08-01T01:50:47;4.70;;;2.90;;
69310;SDS011;56430;48.154;16.458;2022-08-01T01:53:15;3.65;;;2.70;;
69310;SDS011;56430;48.154;16.458;2022-08-01T01:55:43;5.33;;;3.00;;
69310;SDS011;56430;48.154;16.458;2022-08-01T01:58:11;9.33;;;3.03;;
69310;SDS011;56430;48.154;16.458;2022-08-01T02:00:42;7.03;;;2.88;;
69310;SDS011;56430;48.154;16.458;2022-08-01T02:03:09;5.45;;;3.13;;
69310;SDS011;56430;48.154;16.458;2022-08-01T02:05:38;6.60;;;2.92;;
69310;SDS011;56430;48.154;16.458;2022-08-01T02:08:05;5.60;;;2.90;;
69310;SDS011;56430;48.154;16.458;2022-08-01T02:10:34;8.43;;;3.00;;
69310;SDS011;56430;48.154;16.458;2022-08-01T02:13:02;5.77;;;3.10;;
69310;SDS011;56430;48.154;16.458;2022-08-01T02:15:29;4.57;;;2.92;;
69310;SDS011;56430;48.154;16.458;2022-08-01T02:17:57;7.28;;;2.83;;
69310;SDS011;56430;48.154;16.458;2022-08-01T02:20:24;4.10;;;2.95;;
69310;SDS011;56430;48.154;16.458;2022-08-01T02:22:55;6.05;;;3.10;;
69310;SDS011;56430;48.154;16.458;2022-08-01T02:25:25;5.37;;;3.10;;
69310;SDS011;56430;48.154;16.458;2022-08-01T02:27:55;4.93;;;2.90;;
69310;SDS011;56430;48.154;16.458;2022-08-01T02:30:24;4.97;;;3.05;;
69310;SDS011;56430;48.154;16.458;2022-08-01T02:32:52;4.57;;;3.08;;
69310;SDS011;56430;48.154;16.458;2022-08-01T02:35:21;5.95;;;3.15;;
69310;SDS011;56430;48.154;16.458;2022-08-01T02:37:53;4.95;;;2.83;;
69310;SDS011;56430;48.154;16.458;2022-08-01T02:40:21;4.07;;;2.78;;
69310;SDS011;56430;48.154;16.458;2022-08-01T02:42:49;6.73;;;2.97;;
69310;SDS011;56430;48.154;16.458;2022-08-01T02:45:16;4.90;;;3.10;;
69310;SDS011;56430;48.154;16.458;2022-08-01T02:47:43;5.82;;;3.00;;
69310;SDS011;56430;48.154;16.458;2022-08-01T02:50:11;5.20;;;2.85;;
69310;SDS011;56430;48.154;16.458;2022-08-01T02:52:39;5.07;;;2.90;;
69310;SDS011;56430;48.154;16.458;2022-08-01T02:55:06;3.80;;;2.60;;
69310;SDS011;56430;48.154;16.458;2022-08-01T02:57:35;4.80;;;2.80;;
69310;SDS011;56430;48.154;16.458;2022-08-01T03:00:03;4.65;;;2.63;;
69310;SDS011;56430;48.154;16.458;2022-08-01T03:02:31;5.15;;;2.50;;
69310;SDS011;56430;48.154;16.458;2022-08-01T03:04:58;3.90;;;2.60;;
69310;SDS011;56430;48.154;16.458;2022-08-01T03:07:27;4.75;;;2.75;;
69310;SDS011;56430;48.154;16.458;2022-08-01T03:09:58;4.03;;;2.10;;
69310;SDS011;56430;48.154;16.458;2022-08-01T03:12:25;5.00;;;2.47;;
69310;SDS011;56430;48.154;16.458;2022-08-01T03:14:55;4.88;;;2.53;;
69310;SDS011;56430;48.154;16.458;2022-08-01T03:17:23;5.72;;;2.50;;
69310;SDS011;56430;48.154;16.458;2022-08-01T03:19:51;6.30;;;2.85;;
69310;SDS011;56430;48.154;16.458;2022-08-01T03:22:18;5.60;;;2.67;;
69310;SDS011;56430;48.154;16.458;2022-08-01T03:24:47;4.40;;;2.65;;
69310;SDS011;56430;48.154;16.458;2022-08-01T03:27:16;4.28;;;2.30;;
69310;SDS011;56430;48.154;16.458;2022-08-01T03:29:44;3.73;;;2.30;;
69310;SDS011;56430;48.154;16.458;2022-08-01T03:32:12;5.68;;;2.33;;
69310;SDS011;56430;48.154;16.458;2022-08-01T03:34:40;3.63;;;2.50;;
69310;SDS011;56430;48.154;16.458;2022-08-01T03:37:09;3.40;;;2.40;;
69310;SDS011;56430;48.154;16.458;2022-08-01T03:39:45;4.53;;;2.67;;
69310;SDS011;56430;48.154;16.458;2022-08-01T03:45:14;3.33;;;2.40;;
69310;SDS011;56430;48.154;16.458;2022-08-01T03:47:43;9.70;;;2.93;;
69310;SDS011;56430;48.154;16.458;2022-08-01T03:50:11;4.38;;;2.60;;
69310;SDS011;56430;48.154;16.458;2022-08-01T03:52:40;5.10;;;3.08;;
69310;SDS011;56430;48.154;16.458;2022-08-01T03:55:08;5.47;;;3.05;;
69310;SDS011;56430;48.154;16.458;2022-08-01T03:57:36;6.13;;;3.00;;
69310;SDS011;56430;48.154;16.458;2022-08-01T04:00:05;4.78;;;3.00;;
69310;SDS011;56430;48.154;16.458;2022-08-01T04:02:34;6.70;;;3.72;;
69310;SDS011;56430;48.154;16.458;2022-08-01T04:05:03;5.70;;;3.35;;
69310;SDS011;56430;48.154;16.458;2022-08-01T04:07:31;9.93;;;3.40;;
69310;SDS011;56430;48.154;16.458;2022-08-01T04:09:58;13.07;;;4.23;;
69310;SDS011;56430;48.154;16.458;2022-08-01T04:12:24;6.53;;;3.78;;
69310;SDS011;56430;48.154;16.458;2022-08-01T04:14:51;9.23;;;4.07;;
69310;SDS011;56430;48.154;16.458;2022-08-01T04:17:18;8.07;;;4.05;;
69310;SDS011;56430;48.154;16.458;2022-08-01T04:19:45;5.30;;;3.50;;
69310;SDS011;56430;48.154;16.458;2022-08-01T04:22:14;14.30;;;3.67;;
69310;SDS011;56430;48.154;16.458;2022-08-01T04:24:42;14.30;;;4.22;;
69310;SDS011;56430;48.154;16.458;2022-08-01T04:27:14;18.67;;;4.47;;
69310;SDS011;56430;48.154;16.458;2022-08-01T04:29:43;9.80;;;4.27;;
69310;SDS011;56430;48.154;16.458;2022-08-01T04:32:11;10.77;;;4.10;;
69310;SDS011;56430;48.154;16.458;2022-08-01T04:34:39;5.38;;;3.50;;
69310;SDS011;56430;48.154;16.458;2022-08-01T04:37:08;7.47;;;3.83;;
69310;SDS011;56430;48.154;16.458;2022-08-01T04:39:37;6.25;;;3.50;;
69310;SDS011;56430;48.154;16.458;2022-08-01T04:42:05;5.63;;;3.30;;
69310;SDS011;56430;48.154;16.458;2022-08-01T04:44:33;9.80;;;3.20;;
69310;SDS011;56430;48.154;16.458;2022-08-01T04:47:00;7.68;;;2.92;;
69310;SDS011;56430;48.154;16.458;2022-08-01T04:49:28;4.70;;;3.03;;
69310;SDS011;56430;48.154;16.458;2022-08-01T04:51:56;5.63;;;3.00;;
69310;SDS011;56430;48.154;16.458;2022-08-01T04:54:25;4.22;;;2.60;;
69310;SDS011;56430;48.154;16.458;2022-08-01T04:56:54;7.38;;;2.70;;
69310;SDS011;56430;48.154;16.458;2022-08-01T04:59:24;4.72;;;2.50;;
69310;SDS011;56430;48.154;16.458;2022-08-01T05:02:06;4.68;;;2.60;;
69310;SDS011;56430;48.154;16.458;2022-08-01T05:04:33;4.25;;;2.70;;
69310;SDS011;56430;48.154;16.458;2022-08-01T05:07:00;6.70;;;2.63;;
69310;SDS011;56430;48.154;16.458;2022-08-01T05:09:27;5.00;;;2.65;;
69310;SDS011;56430;48.154;16.458;2022-08-01T05:11:55;5.70;;;2.33;;
69310;SDS011;56430;48.154;16.458;2022-08-01T05:14:23;3.80;;;2.30;;
69310;SDS011;56430;48.154;16.458;2022-08-01T05:16:50;3.90;;;2.40;;
69310;SDS011;56430;48.154;16.458;2022-08-01T05:19:18;5.50;;;2.35;;
69310;SDS011;56430;48.154;16.458;2022-08-01T05:21:45;7.53;;;2.72;;
69310;SDS011;56430;48.154;16.458;2022-08-01T05:24:11;4.80;;;2.83;;
69310;SDS011;56430;48.154;16.458;2022-08-01T05:26:39;4.78;;;2.22;;
69310;SDS011;56430;48.154;16.458;2022-08-01T05:29:07;3.83;;;2.33;;
69310;SDS011;56430;48.154;16.458;2022-08-01T05:31:34;4.00;;;2.40;;
69310;SDS011;56430;48.154;16.458;2022-08-01T05:34:01;4.00;;;2.17;;
69310;SDS011;56430;48.154;16.458;2022-08-01T05:36:28;5.30;;;2.17;;
69310;SDS011;56430;48.154;16.458;2022-08-01T05:38:55;5.70;;;2.87;;
69310;SDS011;56430;48.154;16.458;2022-08-01T05:41:22;3.93;;;2.20;;
69310;SDS011;56430;48.154;16.458;2022-08-01T05:43:48;3.67;;;1.95;;
69310;SDS011;56430;48.154;16.458;2022-08-01T05:46:19;4.32;;;2.05;;
69310;SDS011;56430;48.154;16.458;2022-08-01T05:48:46;4.13;;;2.20;;
69310;SDS011;56430;48.154;16.458;2022-08-01T05:51:13;6.90;;;2.80;;
69310;SDS011;56430;48.154;16.458;2022-08-01T05:53:40;6.35;;;2.42;;
69310;SDS011;56430;48.154;16.458;2022-08-01T05:56:07;4.43;;;2.33;;
69310;SDS011;56430;48.154;16.458;2022-08-01T05:58:33;4.90;;;2.45;;
69310;SDS011;56430;48.154;16.458;2022-08-01T06:01:00;5.65;;;2.50;;
69310;SDS011;56430;48.154;16.458;2022-08-01T06:03:28;7.10;;;2.63;;
69310;SDS011;56430;48.154;16.458;2022-08-01T06:05:56;10.60;;;3.30;;
69310;SDS011;56430;48.154;16.458;2022-08-01T06:08:23;5.72;;;2.35;;
69310;SDS011;56430;48.154;16.458;2022-08-01T06:10:50;8.73;;;2.50;;
69310;SDS011;56430;48.154;16.458;2022-08-01T06:13:17;9.68;;;2.33;;
69310;SDS011;56430;48.154;16.458;2022-08-01T06:15:45;6.20;;;2.72;;
69310;SDS011;56430;48.154;16.458;2022-08-01T06:18:11;8.18;;;2.85;;
69310;SDS011;56430;48.154;16.458;2022-08-01T06:20:40;15.38;;;4.50;;
69310;SDS011;56430;48.154;16.458;2022-08-01T06:23:06;9.02;;;2.63;;
69310;SDS011;56430;48.154;16.458;2022-08-01T06:25:33;6.40;;;2.80;;
69310;SDS011;56430;48.154;16.458;2022-08-01T06:28:01;3.83;;;2.47;;
69310;SDS011;56430;48.154;16.458;2022-08-01T06:30:28;22.00;;;3.20;;
69310;SDS011;56430;48.154;16.458;2022-08-01T06:32:54;13.52;;;2.88;;
69310;SDS011;56430;48.154;16.458;2022-08-01T06:35:24;18.63;;;3.00;;
69310;SDS011;56430;48.154;16.458;2022-08-01T06:37:52;9.38;;;2.53;;
69310;SDS011;56430;48.154;16.458;2022-08-01T06:40:19;5.78;;;2.40;;
69310;SDS011;56430;48.154;16.458;2022-08-01T06:42:46;10.40;;;3.72;;
69310;SDS011;56430;48.154;16.458;2022-08-01T06:45:13;15.27;;;3.25;;
69310;SDS011;56430;48.154;16.458;2022-08-01T06:47:41;5.35;;;2.92;;
69310;SDS011;56430;48.154;16.458;2022-08-01T06:50:09;3.80;;;2.35;;
69310;SDS011;56430;48.154;16.458;2022-08-01T06:52:36;17.30;;;2.80;;
69310;SDS011;56430;48.154;16.458;2022-08-01T06:55:05;14.83;;;3.30;;
69310;SDS011;56430;48.154;16.458;2022-08-01T06:57:32;8.57;;;3.30;;
69310;SDS011;56430;48.154;16.458;2022-08-01T07:00:00;6.85;;;3.08;;
69310;SDS011;56430;48.154;16.458;2022-08-01T07:02:28;6.90;;;2.70;;
69310;SDS011;56430;48.154;16.458;2022-08-01T07:04:54;5.28;;;2.92;;
69310;SDS011;56430;48.154;16.458;2022-08-01T07:07:25;4.95;;;2.83;;
69310;SDS011;56430;48.154;16.458;2022-08-01T07:09:52;5.32;;;2.60;;
69310;SDS011;56430;48.154;16.458;2022-08-01T07:12:20;5.55;;;2.30;;
69310;SDS011;56430;48.154;16.458;2022-08-01T07:14:47;6.30;;;2.55;;
69310;SDS011;56430;48.154;16.458;2022-08-01T07:17:14;4.30;;;2.33;;
69310;SDS011;56430;48.154;16.458;2022-08-01T07:19:41;4.37;;;2.83;;
69310;SDS011;56430;48.154;16.458;2022-08-01T07:22:09;3.83;;;2.10;;
69310;SDS011;56430;48.154;16.458;2022-08-01T07:24:36;4.70;;;2.30;;
69310;SDS011;56430;48.154;16.458;2022-08-01T07:27:03;6.30;;;2.40;;
69310;SDS011;56430;48.154;16.458;2022-08-01T07:29:31;5.13;;;2.35;;
69310;SDS011;56430;48.154;16.458;2022-08-01T07:31:58;4.18;;;2.30;;
69310;SDS011;56430;48.154;16.458;2022-08-01T07:34:25;4.78;;;2.35;;
69310;SDS011;56430;48.154;16.458;2022-08-01T07:36:52;3.95;;;2.42;;
69310;SDS011;56430;48.154;16.458;2022-08-01T07:39:19;8.60;;;2.80;;
69310;SDS011;56430;48.154;16.458;2022-08-01T07:41:46;4.20;;;2.30;;
69310;SDS011;56430;48.154;16.458;2022-08-01T07:44:13;4.73;;;2.43;;
69310;SDS011;56430;48.154;16.458;2022-08-01T07:46:41;6.25;;;2.33;;
69310;SDS011;56430;48.154;16.458;2022-08-01T07:49:08;6.85;;;2.80;;
69310;SDS011;56430;48.154;16.458;2022-08-01T07:51:35;5.35;;;2.40;;
69310;SDS011;56430;48.154;16.458;2022-08-01T07:54:02;4.32;;;2.40;;
69310;SDS011;56430;48.154;16.458;2022-08-01T07:56:29;6.55;;;2.60;;
69310;SDS011;56430;48.154;16.458;2022-08-01T07:58:55;5.50;;;2.33;;
69310;SDS011;56430;48.154;16.458;2022-08-01T08:01:22;7.72;;;2.53;;
69310;SDS011;56430;48.154;16.458;2022-08-01T08:03:50;7.25;;;2.97;;
69310;SDS011;56430;48.154;16.458;2022-08-01T08:06:17;5.17;;;2.67;;
69310;SDS011;56430;48.154;16.458;2022-08-01T08:08:44;8.10;;;2.90;;
69310;SDS011;56430;48.154;16.458;2022-08-01T08:11:11;6.68;;;2.78;;
69310;SDS011;56430;48.154;16.458;2022-08-01T08:13:38;6.35;;;2.72;;
69310;SDS011;56430;48.154;16.458;2022-08-01T08:16:04;6.22;;;2.60;;
69310;SDS011;56430;48.154;16.458;2022-08-01T08:18:31;6.78;;;2.83;;
69310;SDS011;56430;48.154;16.458;2022-08-01T08:20:59;4.22;;;2.63;;
69310;SDS011;56430;48.154;16.458;2022-08-01T08:23:26;6.97;;;2.90;;
69310;SDS011;56430;48.154;16.458;2022-08-01T08:26:10;5.93;;;2.92;;
69310;SDS011;56430;48.154;16.458;2022-08-01T08:28:37;7.70;;;2.83;;
69310;SDS011;56430;48.154;16.458;2022-08-01T08:31:04;8.97;;;3.23;;
69310;SDS011;56430;48.154;16.458;2022-08-01T08:33:31;7.30;;;3.40;;
69310;SDS011;56430;48.154;16.458;2022-08-01T08:35:59;7.20;;;2.95;;
69310;SDS011;56430;48.154;16.458;2022-08-01T08:38:26;8.35;;;3.10;;
69310;SDS011;56430;48.154;16.458;2022-08-01T08:40:53;4.50;;;2.70;;
69310;SDS011;56430;48.154;16.458;2022-08-01T08:43:20;7.00;;;3.10;;
69310;SDS011;56430;48.154;16.458;2022-08-01T08:45:47;5.05;;;2.53;;
69310;SDS011;56430;48.154;16.458;2022-08-01T08:48:14;6.18;;;2.95;;
69310;SDS011;56430;48.154;16.458;2022-08-01T08:50:41;19.05;;;3.63;;
69310;SDS011;56430;48.154;16.458;2022-08-01T08:53:10;6.50;;;3.33;;
69310;SDS011;56430;48.154;16.458;2022-08-01T08:55:40;10.60;;;2.87;;
69310;SDS011;56430;48.154;16.458;2022-08-01T08:58:08;11.23;;;3.13;;
69310;SDS011;56430;48.154;16.458;2022-08-01T09:00:36;9.38;;;2.92;;
69310;SDS011;56430;48.154;16.458;2022-08-01T09:03:02;6.55;;;2.47;;
69310;SDS011;56430;48.154;16.458;2022-08-01T09:05:29;7.38;;;3.08;;
69310;SDS011;56430;48.154;16.458;2022-08-01T09:07:56;23.67;;;3.95;;
69310;SDS011;56430;48.154;16.458;2022-08-01T09:10:25;12.23;;;3.40;;
69310;SDS011;56430;48.154;16.458;2022-08-01T09:13:06;6.95;;;2.90;;
69310;SDS011;56430;48.154;16.458;2022-08-01T09:15:40;4.68;;;2.55;;
69310;SDS011;56430;48.154;16.458;2022-08-01T09:18:07;5.03;;;3.05;;
69310;SDS011;56430;48.154;16.458;2022-08-01T09:20:34;5.17;;;2.80;;
69310;SDS011;56430;48.154;16.458;2022-08-01T09:23:01;5.00;;;2.77;;
69310;SDS011;56430;48.154;16.458;2022-08-01T09:25:30;10.80;;;3.10;;
69310;SDS011;56430;48.154;16.458;2022-08-01T09:28:02;3.50;;;2.60;;
69310;SDS011;56430;48.154;16.458;2022-08-01T09:30:36;3.33;;;2.50;;
69310;SDS011;56430;48.154;16.458;2022-08-01T09:33:03;4.50;;;2.80;;
69310;SDS011;56430;48.154;16.458;2022-08-01T09:35:30;5.07;;;2.92;;
69310;SDS011;56430;48.154;16.458;2022-08-01T09:38:12;4.10;;;2.90;;
69310;SDS011;56430;48.154;16.458;2022-08-01T09:40:51;4.55;;;3.05;;
69310;SDS011;56430;48.154;16.458;2022-08-01T09:43:18;5.40;;;3.50;;
69310;SDS011;56430;48.154;16.458;2022-08-01T09:45:45;4.37;;;3.47;;
69310;SDS011;56430;48.154;16.458;2022-08-01T09:48:12;4.27;;;3.57;;
69310;SDS011;56430;48.154;16.458;2022-08-01T09:50:41;4.13;;;3.72;;
69310;SDS011;56430;48.154;16.458;2022-08-01T09:53:08;4.43;;;3.90;;
69310;SDS011;56430;48.154;16.458;2022-08-01T09:55:35;4.68;;;3.85;;
69310;SDS011;56430;48.154;16.458;2022-08-01T09:58:04;5.38;;;3.90;;
69310;SDS011;56430;48.154;16.458;2022-08-01T10:00:34;4.95;;;3.95;;
69310;SDS011;56430;48.154;16.458;2022-08-01T10:03:18;6.88;;;4.53;;
69310;SDS011;56430;48.154;16.458;2022-08-01T10:05:45;6.13;;;4.13;;
69310;SDS011;56430;48.154;16.458;2022-08-01T10:08:13;10.55;;;3.80;;
69310;SDS011;56430;48.154;16.458;2022-08-01T10:10:39;4.10;;;3.70;;
69310;SDS011;56430;48.154;16.458;2022-08-01T10:13:08;8.07;;;4.50;;
69310;SDS011;56430;48.154;16.458;2022-08-01T10:15:35;3.92;;;3.63;;
69310;SDS011;56430;48.154;16.458;2022-08-01T10:18:04;4.40;;;3.50;;
69310;SDS011;56430;48.154;16.458;2022-08-01T10:20:31;4.43;;;3.60;;
69310;SDS011;56430;48.154;16.458;2022-08-01T10:22:59;5.30;;;3.88;;
69310;SDS011;56430;48.154;16.458;2022-08-01T10:25:26;7.20;;;3.47;;
69310;SDS011;56430;48.154;16.458;2022-08-01T10:27:54;4.70;;;3.55;;
69310;SDS011;56430;48.154;16.458;2022-08-01T10:30:23;6.70;;;3.30;;
69310;SDS011;56430;48.154;16.458;2022-08-01T10:32:50;6.90;;;3.80;;
69310;SDS011;56430;48.154;16.458;2022-08-01T10:35:18;5.87;;;3.73;;
69310;SDS011;56430;48.154;16.458;2022-08-01T10:37:45;5.17;;;3.90;;
69310;SDS011;56430;48.154;16.458;2022-08-01T10:40:12;5.72;;;3.58;;
69310;SDS011;56430;48.154;16.458;2022-08-01T10:42:40;4.45;;;3.65;;
69310;SDS011;56430;48.154;16.458;2022-08-01T10:45:08;5.10;;;3.22;;
69310;SDS011;56430;48.154;16.458;2022-08-01T10:47:42;4.15;;;3.05;;
69310;SDS011;56430;48.154;16.458;2022-08-01T10:50:12;3.78;;;3.13;;
69310;SDS011;56430;48.154;16.458;2022-08-01T10:52:40;4.93;;;3.47;;
69310;SDS011;56430;48.154;16.458;2022-08-01T10:55:07;5.05;;;3.35;;
69310;SDS011;56430;48.154;16.458;2022-08-01T10:57:41;4.72;;;3.55;;
69310;SDS011;56430;48.154;16.458;2022-08-01T11:00:08;4.63;;;3.47;;
69310;SDS011;56430;48.154;16.458;2022-08-01T11:02:35;5.60;;;3.80;;
69310;SDS011;56430;48.154;16.458;2022-08-01T11:05:09;4.05;;;3.50;;
69310;SDS011;56430;48.154;16.458;2022-08-01T11:07:43;4.03;;;3.63;;
69310;SDS011;56430;48.154;16.458;2022-08-01T11:10:20;4.47;;;4.07;;
69310;SDS011;56430;48.154;16.458;2022-08-01T11:12:48;9.60;;;3.88;;
69310;SDS011;56430;48.154;16.458;2022-08-01T11:15:16;4.30;;;3.88;;
69310;SDS011;56430;48.154;16.458;2022-08-01T11:17:49;6.18;;;4.43;;
69310;SDS011;56430;48.154;16.458;2022-08-01T11:20:19;4.47;;;4.07;;
69310;SDS011;56430;48.154;16.458;2022-08-01T11:28:17;5.67;;;3.40;;
69310;SDS011;56430;48.154;16.458;2022-08-01T11:30:45;12.27;;;4.20;;
69310;SDS011;56430;48.154;16.458;2022-08-01T11:33:12;8.82;;;3.90;;
69310;SDS011;56430;48.154;16.458;2022-08-01T11:36:16;4.78;;;3.65;;
69310;SDS011;56430;48.154;16.458;2022-08-01T11:38:30;4.15;;;3.35;;
69310;SDS011;56430;48.154;16.458;2022-08-01T11:41:09;7.20;;;3.80;;
69310;SDS011;56430;48.154;16.458;2022-08-01T11:43:36;9.18;;;3.35;;
69310;SDS011;56430;48.154;16.458;2022-08-01T11:51:56;3.60;;;2.80;;
69310;SDS011;56430;48.154;16.458;2022-08-01T11:54:24;7.07;;;3.13;;
69310;SDS011;56430;48.154;16.458;2022-08-01T11:56:53;6.25;;;3.42;;
69310;SDS011;56430;48.154;16.458;2022-08-01T11:59:20;9.23;;;3.70;;
69310;SDS011;56430;48.154;16.458;2022-08-01T12:01:47;6.05;;;3.00;;
69310;SDS011;56430;48.154;16.458;2022-08-01T12:04:14;5.60;;;3.10;;
69310;SDS011;56430;48.154;16.458;2022-08-01T12:06:41;7.53;;;3.55;;
69310;SDS011;56430;48.154;16.458;2022-08-01T12:09:16;6.53;;;2.83;;
69310;SDS011;56430;48.154;16.458;2022-08-01T12:11:43;5.45;;;2.88;;
69310;SDS011;56430;48.154;16.458;2022-08-01T12:14:15;4.93;;;2.75;;
69310;SDS011;56430;48.154;16.458;2022-08-01T12:16:47;3.00;;;2.70;;
69310;SDS011;56430;48.154;16.458;2022-08-01T12:19:17;3.83;;;2.93;;
69310;SDS011;56430;48.154;16.458;2022-08-01T12:21:44;5.75;;;2.80;;
69310;SDS011;56430;48.154;16.458;2022-08-01T12:24:10;3.95;;;2.90;;
69310;SDS011;56430;48.154;16.458;2022-08-01T12:26:41;5.30;;;3.15;;
69310;SDS011;56430;48.154;16.458;2022-08-01T12:29:08;4.35;;;2.90;;
69310;SDS011;56430;48.154;16.458;2022-08-01T12:31:35;3.60;;;2.72;;
69310;SDS011;56430;48.154;16.458;2022-08-01T12:36:47;4.95;;;2.85;;
69310;SDS011;56430;48.154;16.458;2022-08-01T12:39:14;4.80;;;2.40;;
69310;SDS011;56430;48.154;16.458;2022-08-01T12:41:43;3.40;;;2.30;;
69310;SDS011;56430;48.154;16.458;2022-08-01T12:44:12;6.13;;;2.50;;
69310;SDS011;56430;48.154;16.458;2022-08-01T12:46:39;4.78;;;2.65;;
69310;SDS011;56430;48.154;16.458;2022-08-01T12:49:07;3.33;;;2.28;;
69310;SDS011;56430;48.154;16.458;2022-08-01T12:51:33;7.25;;;2.80;;
69310;SDS011;56430;48.154;16.458;2022-08-01T12:54:01;3.42;;;2.03;;
69310;SDS011;56430;48.154;16.458;2022-08-01T12:56:32;3.92;;;1.90;;
69310;SDS011;56430;48.154;16.458;2022-08-01T12:59:01;6.28;;;1.70;;
69310;SDS011;56430;48.154;16.458;2022-08-01T13:01:28;4.50;;;1.50;;
69310;SDS011;56430;48.154;16.458;2022-08-01T13:03:59;2.75;;;1.40;;
69310;SDS011;56430;48.154;16.458;2022-08-01T13:06:29;3.17;;;1.10;;
69310;SDS011;56430;48.154;16.458;2022-08-01T13:09:04;3.10;;;1.30;;
69310;SDS011;56430;48.154;16.458;2022-08-01T13:11:30;6.30;;;1.40;;
69310;SDS011;56430;48.154;16.458;2022-08-01T13:13:57;3.15;;;1.48;;
69310;SDS011;56430;48.154;16.458;2022-08-01T13:16:27;5.82;;;1.60;;
69310;SDS011;56430;48.154;16.458;2022-08-01T13:18:54;2.65;;;1.48;;
69310;SDS011;56430;48.154;16.458;2022-08-01T13:21:22;5.43;;;1.42;;
69310;SDS011;56430;48.154;16.458;2022-08-01T13:24:02;4.05;;;1.83;;
69310;SDS011;56430;48.154;16.458;2022-08-01T13:26:43;2.67;;;1.63;;
69310;SDS011;56430;48.154;16.458;2022-08-01T13:29:10;4.18;;;1.90;;
69310;SDS011;56430;48.154;16.458;2022-08-01T13:31:40;4.00;;;2.00;;
69310;SDS011;56430;48.154;16.458;2022-08-01T13:34:07;3.10;;;1.93;;
69310;SDS011;56430;48.154;16.458;2022-08-01T13:36:34;5.40;;;2.15;;
69310;SDS011;56430;48.154;16.458;2022-08-01T13:39:03;10.57;;;2.60;;
69310;SDS011;56430;48.154;16.458;2022-08-01T13:41:48;5.32;;;2.70;;
69310;SDS011;56430;48.154;16.458;2022-08-01T13:44:15;2.83;;;1.90;;
69310;SDS011;56430;48.154;16.458;2022-08-01T13:46:43;5.75;;;2.08;;
69310;SDS011;56430;48.154;16.458;2022-08-01T13:49:12;9.70;;;1.90;;
69310;SDS011;56430;48.154;16.458;2022-08-01T13:51:40;4.55;;;1.90;;
69310;SDS011;56430;48.154;16.458;2022-08-01T13:54:06;2.50;;;1.67;;
69310;SDS011;56430;48.154;16.458;2022-08-01T13:56:34;5.80;;;1.83;;
69310;SDS011;56430;48.154;16.458;2022-08-01T13:59:01;3.40;;;1.90;;
69310;SDS011;56430;48.154;16.458;2022-08-01T14:01:28;3.25;;;1.90;;
69310;SDS011;56430;48.154;16.458;2022-08-01T14:03:56;2.80;;;1.40;;
69310;SDS011;56430;48.154;16.458;2022-08-01T14:06:24;4.43;;;1.50;;
69310;SDS011;56430;48.154;16.458;2022-08-01T14:08:51;2.53;;;1.45;;
69310;SDS011;56430;48.154;16.458;2022-08-01T14:11:18;2.55;;;1.27;;
69310;SDS011;56430;48.154;16.458;2022-08-01T14:13:45;2.53;;;1.13;;
69310;SDS011;56430;48.154;16.458;2022-08-01T14:16:14;4.28;;;1.50;;
69310;SDS011;56430;48.154;16.458;2022-08-01T14:18:42;4.28;;;1.60;;
69310;SDS011;56430;48.154;16.458;2022-08-01T14:21:11;2.60;;;1.20;;
69310;SDS011;56430;48.154;16.458;2022-08-01T14:23:49;2.00;;;1.30;;
69310;SDS011;56430;48.154;16.458;2022-08-01T14:26:16;2.53;;;1.40;;
69310;SDS011;56430;48.154;16.458;2022-08-01T14:28:43;2.78;;;1.50;;
69310;SDS011;56430;48.154;16.458;2022-08-01T14:31:09;2.70;;;1.50;;
69310;SDS011;56430;48.154;16.458;2022-08-01T14:33:36;2.50;;;1.60;;
69310;SDS011;56430;48.154;16.458;2022-08-01T14:36:03;3.33;;;1.60;;
69310;SDS011;56430;48.154;16.458;2022-08-01T14:38:31;2.65;;;1.38;;
69310;SDS011;56430;48.154;16.458;2022-08-01T14:40:58;3.08;;;1.40;;
69310;SDS011;56430;48.154;16.458;2022-08-01T14:43:26;3.60;;;1.42;;
69310;SDS011;56430;48.154;16.458;2022-08-01T14:45:52;2.67;;;1.30;;
69310;SDS011;56430;48.154;16.458;2022-08-01T14:48:20;2.40;;;1.40;;
69310;SDS011;56430;48.154;16.458;2022-08-01T14:50:46;2.72;;;1.25;;
69310;SDS011;56430;48.154;16.458;2022-08-01T14:53:13;4.15;;;1.60;;
69310;SDS011;56430;48.154;16.458;2022-08-01T14:55:41;3.33;;;1.40;;
69310;SDS011;56430;48.154;16.458;2022-08-01T14:58:08;2.90;;;1.55;;